sensor_id;sensor_type;location;lat;lon;timestamp;temperature;humidity
33931;DHT22;20215;53.130;6.408;2022-10-17T00:00:40;17.80;87.80
33931;DHT22;20215;53.130;6.408;2022-10-17T00:03:05;17.80;87.90
33931;DHT22;20215;53.130;6.408;2022-10-17T00:05:31;17.80;88.10
33931;DHT22;20215;53.130;6.408;2022-10-17T00:08:01;17.90;88.20
33931;DHT22;20215;53.130;6.408;2022-10-17T00:10:27;17.90;88.10
33931;DHT22;20215;53.130;6.408;2022-10-17T00:12:53;17.80;88.20
33931;DHT22;20215;53.130;6.408;2022-10-17T00:15:19;17.80;88.00
33931;DHT22;20215;53.130;6.408;2022-10-17T00:17:45;17.80;87.90
33931;DHT22;20215;53.130;6.408;2022-10-17T00:20:11;17.80;87.80
33931;DHT22;20215;53.130;6.408;2022-10-17T00:22:37;17.80;88.00
33931;DHT22;20215;53.130;6.408;2022-10-17T00:25:03;17.80;88.00
33931;DHT22;20215;53.130;6.408;2022-10-17T00:27:29;17.80;88.10
33931;DHT22;20215;53.130;6.408;2022-10-17T00:29:54;17.80;88.10
33931;DHT22;20215;53.130;6.408;2022-10-17T00:32:20;17.80;87.70
33931;DHT22;20215;53.130;6.408;2022-10-17T00:34:45;17.80;88.00
33931;DHT22;20215;53.130;6.408;2022-10-17T00:37:11;17.80;87.90
33931;DHT22;20215;53.130;6.408;2022-10-17T00:39:37;17.70;87.60
33931;DHT22;20215;53.130;6.408;2022-10-17T00:42:03;17.70;87.70
33931;DHT22;20215;53.130;6.408;2022-10-17T00:46:55;17.70;87.70
33931;DHT22;20215;53.130;6.408;2022-10-17T00:49:22;17.70;87.90
33931;DHT22;20215;53.130;6.408;2022-10-17T00:51:54;17.70;88.10
33931;DHT22;20215;53.130;6.408;2022-10-17T00:54:27;17.70;87.90
33931;DHT22;20215;53.130;6.408;2022-10-17T00:56:55;17.70;87.70
33931;DHT22;20215;53.130;6.408;2022-10-17T00:59:22;17.70;88.10
33931;DHT22;20215;53.130;6.408;2022-10-17T01:02:09;17.70;87.80
33931;DHT22;20215;53.130;6.408;2022-10-17T01:04:36;17.70;87.30
33931;DHT22;20215;53.130;6.408;2022-10-17T01:07:03;17.70;87.60
33931;DHT22;20215;53.130;6.408;2022-10-17T01:09:28;17.70;88.20
33931;DHT22;20215;53.130;6.408;2022-10-17T01:14:59;17.70;87.70
33931;DHT22;20215;53.130;6.408;2022-10-17T01:17:51;17.60;88.20
33931;DHT22;20215;53.130;6.408;2022-10-17T01:29:15;17.60;88.30
33931;DHT22;20215;53.130;6.408;2022-10-17T01:34:44;17.70;88.30
33931;DHT22;20215;53.130;6.408;2022-10-17T01:37:36;17.60;88.30
33931;DHT22;20215;53.130;6.408;2022-10-17T01:40:21;17.60;88.30
33931;DHT22;20215;53.130;6.408;2022-10-17T01:43:00;17.60;88.60
33931;DHT22;20215;53.130;6.408;2022-10-17T01:45:44;17.70;88.70
33931;DHT22;20215;53.130;6.408;2022-10-17T01:48:17;17.60;88.50
33931;DHT22;20215;53.130;6.408;2022-10-17T01:50:49;17.70;88.80
33931;DHT22;20215;53.130;6.408;2022-10-17T01:53:29;17.60;88.60
33931;DHT22;20215;53.130;6.408;2022-10-17T01:56:00;17.60;88.60
33931;DHT22;20215;53.130;6.408;2022-10-17T01:58:40;17.60;89.30
33931;DHT22;20215;53.130;6.408;2022-10-17T02:01:09;17.60;89.10
33931;DHT22;20215;53.130;6.408;2022-10-17T02:03:36;17.60;89.10
33931;DHT22;20215;53.130;6.408;2022-10-17T02:06:02;17.60;89.10
33931;DHT22;20215;53.130;6.408;2022-10-17T02:08:40;17.60;89.60
33931;DHT22;20215;53.130;6.408;2022-10-17T02:11:17;17.70;89.20
33931;DHT22;20215;53.130;6.408;2022-10-17T02:16:37;17.60;89.70
33931;DHT22;20215;53.130;6.408;2022-10-17T02:19:29;17.60;89.20
33931;DHT22;20215;53.130;6.408;2022-10-17T02:22:17;17.60;89.00
33931;DHT22;20215;53.130;6.408;2022-10-17T02:24:59;17.60;89.20
33931;DHT22;20215;53.130;6.408;2022-10-17T02:33:06;17.60;89.50
33931;DHT22;20215;53.130;6.408;2022-10-17T02:35:37;17.60;89.40
33931;DHT22;20215;53.130;6.408;2022-10-17T02:38:05;17.60;89.70
33931;DHT22;20215;53.130;6.408;2022-10-17T02:40:33;17.60;89.80
33931;DHT22;20215;53.130;6.408;2022-10-17T02:43:00;17.60;89.90
33931;DHT22;20215;53.130;6.408;2022-10-17T02:45:28;17.60;89.50
33931;DHT22;20215;53.130;6.408;2022-10-17T02:48:05;17.60;90.00
33931;DHT22;20215;53.130;6.408;2022-10-17T02:56:19;17.50;89.50
33931;DHT22;20215;53.130;6.408;2022-10-17T02:58:49;17.60;89.30
33931;DHT22;20215;53.130;6.408;2022-10-17T03:01:16;17.50;89.50
33931;DHT22;20215;53.130;6.408;2022-10-17T03:03:42;17.50;89.70
33931;DHT22;20215;53.130;6.408;2022-10-17T03:06:07;17.60;90.00
33931;DHT22;20215;53.130;6.408;2022-10-17T03:08:33;17.60;89.70
33931;DHT22;20215;53.130;6.408;2022-10-17T03:10:59;17.60;89.90
33931;DHT22;20215;53.130;6.408;2022-10-17T03:13:24;17.60;89.80
33931;DHT22;20215;53.130;6.408;2022-10-17T03:15:50;17.60;90.00
33931;DHT22;20215;53.130;6.408;2022-10-17T03:18:15;17.60;90.00
33931;DHT22;20215;53.130;6.408;2022-10-17T03:20:41;17.50;89.90
33931;DHT22;20215;53.130;6.408;2022-10-17T03:23:06;17.50;90.00
33931;DHT22;20215;53.130;6.408;2022-10-17T03:25:32;17.60;90.10
33931;DHT22;20215;53.130;6.408;2022-10-17T03:27:58;17.50;90.20
33931;DHT22;20215;53.130;6.408;2022-10-17T03:30:26;17.50;90.30
33931;DHT22;20215;53.130;6.408;2022-10-17T03:32:51;17.60;90.20
33931;DHT22;20215;53.130;6.408;2022-10-17T03:35:17;17.60;90.20
33931;DHT22;20215;53.130;6.408;2022-10-17T03:37:43;17.60;90.30
33931;DHT22;20215;53.130;6.408;2022-10-17T03:40:08;17.60;90.20
33931;DHT22;20215;53.130;6.408;2022-10-17T03:42:34;17.60;90.40
33931;DHT22;20215;53.130;6.408;2022-10-17T03:45:00;17.60;90.30
33931;DHT22;20215;53.130;6.408;2022-10-17T03:47:27;17.50;90.50
33931;DHT22;20215;53.130;6.408;2022-10-17T03:49:53;17.50;90.40
33931;DHT22;20215;53.130;6.408;2022-10-17T03:52:18;17.60;90.20
33931;DHT22;20215;53.130;6.408;2022-10-17T03:54:44;17.60;90.30
33931;DHT22;20215;53.130;6.408;2022-10-17T03:57:10;17.50;90.30
33931;DHT22;20215;53.130;6.408;2022-10-17T03:59:35;17.60;90.40
33931;DHT22;20215;53.130;6.408;2022-10-17T04:02:01;17.50;90.40
33931;DHT22;20215;53.130;6.408;2022-10-17T04:04:26;17.60;90.40
33931;DHT22;20215;53.130;6.408;2022-10-17T04:06:52;17.60;90.40
33931;DHT22;20215;53.130;6.408;2022-10-17T04:09:18;17.50;90.50
33931;DHT22;20215;53.130;6.408;2022-10-17T04:11:43;17.50;90.60
33931;DHT22;20215;53.130;6.408;2022-10-17T04:14:09;17.50;90.50
33931;DHT22;20215;53.130;6.408;2022-10-17T04:16:35;17.50;90.60
33931;DHT22;20215;53.130;6.408;2022-10-17T04:19:00;17.50;90.80
33931;DHT22;20215;53.130;6.408;2022-10-17T04:21:27;17.50;90.80
33931;DHT22;20215;53.130;6.408;2022-10-17T04:23:55;17.50;90.80
33931;DHT22;20215;53.130;6.408;2022-10-17T04:26:22;17.50;90.60
33931;DHT22;20215;53.130;6.408;2022-10-17T04:28:48;17.50;90.60
33931;DHT22;20215;53.130;6.408;2022-10-17T04:31:14;17.50;90.60
33931;DHT22;20215;53.130;6.408;2022-10-17T04:33:40;17.60;90.70
33931;DHT22;20215;53.130;6.408;2022-10-17T04:36:09;17.60;90.40
33931;DHT22;20215;53.130;6.408;2022-10-17T04:38:38;17.60;90.60
33931;DHT22;20215;53.130;6.408;2022-10-17T04:41:05;17.60;90.60
33931;DHT22;20215;53.130;6.408;2022-10-17T04:43:33;17.60;90.90
33931;DHT22;20215;53.130;6.408;2022-10-17T04:46:00;17.60;91.20
33931;DHT22;20215;53.130;6.408;2022-10-17T04:48:27;17.60;91.50
33931;DHT22;20215;53.130;6.408;2022-10-17T04:50:54;17.60;91.60
33931;DHT22;20215;53.130;6.408;2022-10-17T04:53:21;17.60;91.50
33931;DHT22;20215;53.130;6.408;2022-10-17T04:55:47;17.70;91.30
33931;DHT22;20215;53.130;6.408;2022-10-17T04:58:13;17.70;91.30
33931;DHT22;20215;53.130;6.408;2022-10-17T05:00:38;17.70;91.30
33931;DHT22;20215;53.130;6.408;2022-10-17T05:03:04;17.60;91.40
33931;DHT22;20215;53.130;6.408;2022-10-17T05:05:30;17.60;91.30
33931;DHT22;20215;53.130;6.408;2022-10-17T05:07:56;17.70;91.50
33931;DHT22;20215;53.130;6.408;2022-10-17T05:10:21;17.60;91.70
33931;DHT22;20215;53.130;6.408;2022-10-17T05:12:48;17.60;91.60
33931;DHT22;20215;53.130;6.408;2022-10-17T05:15:14;17.70;91.60
33931;DHT22;20215;53.130;6.408;2022-10-17T05:17:39;17.60;91.70
33931;DHT22;20215;53.130;6.408;2022-10-17T05:20:05;17.60;91.90
33931;DHT22;20215;53.130;6.408;2022-10-17T05:22:31;17.60;91.80
33931;DHT22;20215;53.130;6.408;2022-10-17T05:24:57;17.60;91.90
33931;DHT22;20215;53.130;6.408;2022-10-17T05:27:22;17.60;91.70
33931;DHT22;20215;53.130;6.408;2022-10-17T05:29:48;17.60;91.70
33931;DHT22;20215;53.130;6.408;2022-10-17T05:32:14;17.60;91.50
33931;DHT22;20215;53.130;6.408;2022-10-17T05:34:40;17.60;91.60
33931;DHT22;20215;53.130;6.408;2022-10-17T05:37:05;17.60;91.80
33931;DHT22;20215;53.130;6.408;2022-10-17T05:39:31;17.60;91.60
33931;DHT22;20215;53.130;6.408;2022-10-17T05:41:57;17.60;91.30
33931;DHT22;20215;53.130;6.408;2022-10-17T05:44:22;17.60;91.20
33931;DHT22;20215;53.130;6.408;2022-10-17T05:46:50;17.70;91.10
33931;DHT22;20215;53.130;6.408;2022-10-17T05:49:16;17.60;91.00
33931;DHT22;20215;53.130;6.408;2022-10-17T05:51:42;17.70;90.90
33931;DHT22;20215;53.130;6.408;2022-10-17T05:54:07;17.60;90.90
33931;DHT22;20215;53.130;6.408;2022-10-17T05:56:34;17.60;91.40
33931;DHT22;20215;53.130;6.408;2022-10-17T05:59:00;17.70;90.90
33931;DHT22;20215;53.130;6.408;2022-10-17T06:01:25;17.60;90.80
33931;DHT22;20215;53.130;6.408;2022-10-17T06:03:51;17.60;90.90
33931;DHT22;20215;53.130;6.408;2022-10-17T06:06:17;17.70;90.80
33931;DHT22;20215;53.130;6.408;2022-10-17T06:08:43;17.70;90.90
33931;DHT22;20215;53.130;6.408;2022-10-17T06:11:10;17.70;90.80
33931;DHT22;20215;53.130;6.408;2022-10-17T06:13:35;17.60;90.90
33931;DHT22;20215;53.130;6.408;2022-10-17T06:16:01;17.60;90.80
33931;DHT22;20215;53.130;6.408;2022-10-17T06:18:27;17.60;90.90
33931;DHT22;20215;53.130;6.408;2022-10-17T06:20:52;17.60;90.80
33931;DHT22;20215;53.130;6.408;2022-10-17T06:23:18;17.70;90.80
33931;DHT22;20215;53.130;6.408;2022-10-17T06:25:44;17.70;90.80
33931;DHT22;20215;53.130;6.408;2022-10-17T06:28:09;17.70;90.70
33931;DHT22;20215;53.130;6.408;2022-10-17T06:30:39;17.70;90.60
33931;DHT22;20215;53.130;6.408;2022-10-17T06:33:05;17.70;90.60
33931;DHT22;20215;53.130;6.408;2022-10-17T06:35:30;17.60;90.40
33931;DHT22;20215;53.130;6.408;2022-10-17T06:37:56;17.70;90.60
33931;DHT22;20215;53.130;6.408;2022-10-17T06:40:22;17.70;90.50
33931;DHT22;20215;53.130;6.408;2022-10-17T06:42:48;17.70;90.50
33931;DHT22;20215;53.130;6.408;2022-10-17T06:45:14;17.70;90.50
33931;DHT22;20215;53.130;6.408;2022-10-17T06:47:39;17.70;90.50
33931;DHT22;20215;53.130;6.408;2022-10-17T06:50:05;17.70;90.40
33931;DHT22;20215;53.130;6.408;2022-10-17T06:52:31;17.70;90.40
33931;DHT22;20215;53.130;6.408;2022-10-17T06:54:57;17.60;90.40
33931;DHT22;20215;53.130;6.408;2022-10-17T06:57:22;17.70;90.70
33931;DHT22;20215;53.130;6.408;2022-10-17T06:59:48;17.70;90.60
33931;DHT22;20215;53.130;6.408;2022-10-17T07:02:14;17.70;90.50
33931;DHT22;20215;53.130;6.408;2022-10-17T07:04:39;17.70;90.50
33931;DHT22;20215;53.130;6.408;2022-10-17T07:07:05;17.70;90.40
33931;DHT22;20215;53.130;6.408;2022-10-17T07:09:31;17.70;90.40
33931;DHT22;20215;53.130;6.408;2022-10-17T07:11:57;17.70;90.40
33931;DHT22;20215;53.130;6.408;2022-10-17T07:14:24;17.70;90.30
33931;DHT22;20215;53.130;6.408;2022-10-17T07:16:57;17.70;90.30
33931;DHT22;20215;53.130;6.408;2022-10-17T07:19:23;17.70;90.20
33931;DHT22;20215;53.130;6.408;2022-10-17T07:21:49;17.70;90.40
33931;DHT22;20215;53.130;6.408;2022-10-17T07:24:14;17.80;90.20
33931;DHT22;20215;53.130;6.408;2022-10-17T07:26:40;17.70;90.20
33931;DHT22;20215;53.130;6.408;2022-10-17T07:29:06;17.70;90.20
33931;DHT22;20215;53.130;6.408;2022-10-17T07:31:32;17.80;90.20
33931;DHT22;20215;53.130;6.408;2022-10-17T07:33:58;17.80;90.10
33931;DHT22;20215;53.130;6.408;2022-10-17T07:36:25;17.80;90.30
33931;DHT22;20215;53.130;6.408;2022-10-17T07:38:50;17.80;90.10
33931;DHT22;20215;53.130;6.408;2022-10-17T07:41:16;17.80;90.10
33931;DHT22;20215;53.130;6.408;2022-10-17T07:43:44;17.80;90.40
33931;DHT22;20215;53.130;6.408;2022-10-17T07:46:10;17.80;90.20
33931;DHT22;20215;53.130;6.408;2022-10-17T07:48:37;17.80;90.10
33931;DHT22;20215;53.130;6.408;2022-10-17T07:51:06;17.80;90.10
33931;DHT22;20215;53.130;6.408;2022-10-17T07:53:35;17.80;90.10
33931;DHT22;20215;53.130;6.408;2022-10-17T07:56:04;17.80;90.10
33931;DHT22;20215;53.130;6.408;2022-10-17T07:58:31;17.80;90.10
33931;DHT22;20215;53.130;6.408;2022-10-17T08:01:00;17.90;90.10
33931;DHT22;20215;53.130;6.408;2022-10-17T08:03:26;17.90;90.10
33931;DHT22;20215;53.130;6.408;2022-10-17T08:05:51;17.90;90.10
33931;DHT22;20215;53.130;6.408;2022-10-17T08:08:20;18.00;90.20
33931;DHT22;20215;53.130;6.408;2022-10-17T08:10:46;17.90;90.30
33931;DHT22;20215;53.130;6.408;2022-10-17T08:13:12;18.00;90.50
33931;DHT22;20215;53.130;6.408;2022-10-17T08:15:37;18.00;90.30
33931;DHT22;20215;53.130;6.408;2022-10-17T08:18:03;18.00;90.50
33931;DHT22;20215;53.130;6.408;2022-10-17T08:20:29;18.00;90.40
33931;DHT22;20215;53.130;6.408;2022-10-17T08:22:54;18.00;90.30
33931;DHT22;20215;53.130;6.408;2022-10-17T08:25:21;18.00;90.40
33931;DHT22;20215;53.130;6.408;2022-10-17T08:27:47;18.00;90.50
33931;DHT22;20215;53.130;6.408;2022-10-17T08:30:13;18.10;90.40
33931;DHT22;20215;53.130;6.408;2022-10-17T08:32:38;18.10;90.20
33931;DHT22;20215;53.130;6.408;2022-10-17T08:35:04;18.00;90.30
33931;DHT22;20215;53.130;6.408;2022-10-17T08:37:30;18.00;90.40
33931;DHT22;20215;53.130;6.408;2022-10-17T08:39:56;18.10;90.40
33931;DHT22;20215;53.130;6.408;2022-10-17T08:45:31;18.10;90.70
33931;DHT22;20215;53.130;6.408;2022-10-17T08:48:00;18.10;90.60
33931;DHT22;20215;53.130;6.408;2022-10-17T08:53:17;18.10;90.70
33931;DHT22;20215;53.130;6.408;2022-10-17T08:55:45;18.10;90.40
33931;DHT22;20215;53.130;6.408;2022-10-17T08:58:20;18.10;90.50
33931;DHT22;20215;53.130;6.408;2022-10-17T09:01:07;18.10;90.60
33931;DHT22;20215;53.130;6.408;2022-10-17T09:06:25;18.10;90.70
33931;DHT22;20215;53.130;6.408;2022-10-17T09:09:31;18.10;90.50
33931;DHT22;20215;53.130;6.408;2022-10-17T09:12:21;18.10;90.30
33931;DHT22;20215;53.130;6.408;2022-10-17T09:15:28;18.10;90.40
33931;DHT22;20215;53.130;6.408;2022-10-17T09:18:11;18.10;90.70
33931;DHT22;20215;53.130;6.408;2022-10-17T09:23:14;18.20;90.90
33931;DHT22;20215;53.130;6.408;2022-10-17T09:25:54;18.20;90.70
33931;DHT22;20215;53.130;6.408;2022-10-17T09:28:36;18.20;90.60
33931;DHT22;20215;53.130;6.408;2022-10-17T09:35:57;18.20;90.60
33931;DHT22;20215;53.130;6.408;2022-10-17T09:38:27;18.20;90.50
33931;DHT22;20215;53.130;6.408;2022-10-17T09:40:58;18.20;90.40
33931;DHT22;20215;53.130;6.408;2022-10-17T09:43:25;18.20;90.50
33931;DHT22;20215;53.130;6.408;2022-10-17T09:46:07;18.20;90.60
33931;DHT22;20215;53.130;6.408;2022-10-17T09:51:31;18.20;91.10
33931;DHT22;20215;53.130;6.408;2022-10-17T09:54:02;18.20;90.80
33931;DHT22;20215;53.130;6.408;2022-10-17T09:56:28;18.20;90.80
33931;DHT22;20215;53.130;6.408;2022-10-17T09:58:57;18.20;90.70
33931;DHT22;20215;53.130;6.408;2022-10-17T10:01:30;18.20;90.90
33931;DHT22;20215;53.130;6.408;2022-10-17T10:04:10;18.20;90.80
33931;DHT22;20215;53.130;6.408;2022-10-17T10:06:38;18.30;90.80
33931;DHT22;20215;53.130;6.408;2022-10-17T10:09:04;18.30;90.90
33931;DHT22;20215;53.130;6.408;2022-10-17T10:11:49;18.20;90.90
33931;DHT22;20215;53.130;6.408;2022-10-17T10:14:35;18.20;90.90
33931;DHT22;20215;53.130;6.408;2022-10-17T10:17:04;18.30;90.90
33931;DHT22;20215;53.130;6.408;2022-10-17T10:19:35;18.20;90.90
33931;DHT22;20215;53.130;6.408;2022-10-17T10:22:09;18.30;91.10
33931;DHT22;20215;53.130;6.408;2022-10-17T10:24:39;18.20;90.90
33931;DHT22;20215;53.130;6.408;2022-10-17T10:27:05;18.30;90.80
33931;DHT22;20215;53.130;6.408;2022-10-17T10:29:36;18.20;91.00
33931;DHT22;20215;53.130;6.408;2022-10-17T10:32:31;18.30;91.10
33931;DHT22;20215;53.130;6.408;2022-10-17T10:37:40;18.20;90.90
33931;DHT22;20215;53.130;6.408;2022-10-17T10:40:16;18.20;90.90
33931;DHT22;20215;53.130;6.408;2022-10-17T10:42:47;18.30;90.90
33931;DHT22;20215;53.130;6.408;2022-10-17T10:45:17;18.20;90.90
33931;DHT22;20215;53.130;6.408;2022-10-17T10:47:53;18.20;90.90
33931;DHT22;20215;53.130;6.408;2022-10-17T10:50:29;18.20;91.00
33931;DHT22;20215;53.130;6.408;2022-10-17T10:53:24;18.30;91.10
33931;DHT22;20215;53.130;6.408;2022-10-17T10:55:53;18.20;91.30
33931;DHT22;20215;53.130;6.408;2022-10-17T10:58:36;18.20;91.10
33931;DHT22;20215;53.130;6.408;2022-10-17T11:01:24;18.20;91.60
33931;DHT22;20215;53.130;6.408;2022-10-17T11:07:04;18.20;92.10
33931;DHT22;20215;53.130;6.408;2022-10-17T11:12:29;18.20;91.20
33931;DHT22;20215;53.130;6.408;2022-10-17T11:17:56;18.30;91.20
33931;DHT22;20215;53.130;6.408;2022-10-17T11:20:39;18.30;91.60
33931;DHT22;20215;53.130;6.408;2022-10-17T11:26:10;18.20;91.40
33931;DHT22;20215;53.130;6.408;2022-10-17T11:28:37;18.30;91.40
33931;DHT22;20215;53.130;6.408;2022-10-17T11:31:14;18.20;91.50
33931;DHT22;20215;53.130;6.408;2022-10-17T11:36:17;18.30;91.70
33931;DHT22;20215;53.130;6.408;2022-10-17T11:38:52;18.30;91.50
33931;DHT22;20215;53.130;6.408;2022-10-17T11:41:59;18.30;91.70
33931;DHT22;20215;53.130;6.408;2022-10-17T11:44:38;18.30;91.50
33931;DHT22;20215;53.130;6.408;2022-10-17T11:53:01;18.20;91.40
33931;DHT22;20215;53.130;6.408;2022-10-17T11:55:29;18.30;91.60
33931;DHT22;20215;53.130;6.408;2022-10-17T11:58:34;18.30;91.50
33931;DHT22;20215;53.130;6.408;2022-10-17T12:01:31;18.30;91.70
33931;DHT22;20215;53.130;6.408;2022-10-17T12:04:33;18.30;91.30
33931;DHT22;20215;53.130;6.408;2022-10-17T12:07:17;18.30;91.30
33931;DHT22;20215;53.130;6.408;2022-10-17T12:12:30;18.30;91.40
33931;DHT22;20215;53.130;6.408;2022-10-17T12:17:37;18.30;91.30
33931;DHT22;20215;53.130;6.408;2022-10-17T12:23:03;18.40;91.80
33931;DHT22;20215;53.130;6.408;2022-10-17T12:25:31;18.30;91.70
33931;DHT22;20215;53.130;6.408;2022-10-17T12:31:02;18.40;91.60
33931;DHT22;20215;53.130;6.408;2022-10-17T12:33:32;18.40;91.90
33931;DHT22;20215;53.130;6.408;2022-10-17T12:44:37;18.40;91.70
33931;DHT22;20215;53.130;6.408;2022-10-17T12:49:44;18.40;91.60
33931;DHT22;20215;53.130;6.408;2022-10-17T13:02:33;18.40;91.70
33931;DHT22;20215;53.130;6.408;2022-10-17T13:05:07;18.40;91.60
33931;DHT22;20215;53.130;6.408;2022-10-17T13:07:35;18.40;91.80
33931;DHT22;20215;53.130;6.408;2022-10-17T13:10:03;18.40;91.80
33931;DHT22;20215;53.130;6.408;2022-10-17T13:12:32;18.40;91.70
33931;DHT22;20215;53.130;6.408;2022-10-17T13:15:02;18.40;91.70
33931;DHT22;20215;53.130;6.408;2022-10-17T13:17:30;18.40;91.70
33931;DHT22;20215;53.130;6.408;2022-10-17T13:19:57;18.40;91.60
33931;DHT22;20215;53.130;6.408;2022-10-17T13:25:16;18.40;91.50
33931;DHT22;20215;53.130;6.408;2022-10-17T13:27:42;18.40;91.70
33931;DHT22;20215;53.130;6.408;2022-10-17T13:30:31;18.40;91.50
33931;DHT22;20215;53.130;6.408;2022-10-17T13:32:56;18.40;91.40
33931;DHT22;20215;53.130;6.408;2022-10-17T13:35:35;18.40;91.50
33931;DHT22;20215;53.130;6.408;2022-10-17T13:38:05;18.40;92.00
33931;DHT22;20215;53.130;6.408;2022-10-17T13:40:40;18.40;91.60
33931;DHT22;20215;53.130;6.408;2022-10-17T13:43:16;18.40;91.60
33931;DHT22;20215;53.130;6.408;2022-10-17T13:45:54;18.40;91.70
33931;DHT22;20215;53.130;6.408;2022-10-17T13:48:24;18.40;92.20
33931;DHT22;20215;53.130;6.408;2022-10-17T13:50:53;18.40;92.00
33931;DHT22;20215;53.130;6.408;2022-10-17T13:53:32;18.40;92.00
33931;DHT22;20215;53.130;6.408;2022-10-17T13:58:38;18.40;91.90
33931;DHT22;20215;53.130;6.408;2022-10-17T14:01:04;18.40;91.90
33931;DHT22;20215;53.130;6.408;2022-10-17T14:03:30;18.40;92.10
33931;DHT22;20215;53.130;6.408;2022-10-17T14:08:34;18.40;92.30
33931;DHT22;20215;53.130;6.408;2022-10-17T14:11:01;18.40;92.10
33931;DHT22;20215;53.130;6.408;2022-10-17T14:13:29;18.40;92.00
33931;DHT22;20215;53.130;6.408;2022-10-17T14:16:00;18.40;91.80
33931;DHT22;20215;53.130;6.408;2022-10-17T14:18:30;18.40;92.00
33931;DHT22;20215;53.130;6.408;2022-10-17T14:20:56;18.40;92.90
33931;DHT22;20215;53.130;6.408;2022-10-17T14:26:14;18.50;91.90
33931;DHT22;20215;53.130;6.408;2022-10-17T14:28:42;18.40;93.10
33931;DHT22;20215;53.130;6.408;2022-10-17T14:33:44;18.40;92.50
33931;DHT22;20215;53.130;6.408;2022-10-17T14:36:11;18.40;92.30
33931;DHT22;20215;53.130;6.408;2022-10-17T14:38:36;18.40;92.60
33931;DHT22;20215;53.130;6.408;2022-10-17T14:41:14;18.40;92.20
33931;DHT22;20215;53.130;6.408;2022-10-17T14:43:40;18.40;92.40
33931;DHT22;20215;53.130;6.408;2022-10-17T14:46:10;18.40;92.10
33931;DHT22;20215;53.130;6.408;2022-10-17T14:48:41;18.50;92.70
33931;DHT22;20215;53.130;6.408;2022-10-17T14:51:16;18.40;92.70
33931;DHT22;20215;53.130;6.408;2022-10-17T14:54:03;18.40;92.50
33931;DHT22;20215;53.130;6.408;2022-10-17T14:59:00;18.40;92.80
33931;DHT22;20215;53.130;6.408;2022-10-17T15:01:27;18.40;93.00
33931;DHT22;20215;53.130;6.408;2022-10-17T15:03:53;18.40;93.20
33931;DHT22;20215;53.130;6.408;2022-10-17T15:06:22;18.40;92.60
33931;DHT22;20215;53.130;6.408;2022-10-17T15:08:48;18.40;92.70
33931;DHT22;20215;53.130;6.408;2022-10-17T15:11:14;18.40;92.40
33931;DHT22;20215;53.130;6.408;2022-10-17T15:13:40;18.40;92.20
33931;DHT22;20215;53.130;6.408;2022-10-17T15:16:14;18.40;92.50
33931;DHT22;20215;53.130;6.408;2022-10-17T15:18:40;18.50;92.30
33931;DHT22;20215;53.130;6.408;2022-10-17T15:21:16;18.40;92.20
33931;DHT22;20215;53.130;6.408;2022-10-17T15:23:42;18.40;92.30
33931;DHT22;20215;53.130;6.408;2022-10-17T15:28:41;18.40;92.70
33931;DHT22;20215;53.130;6.408;2022-10-17T15:31:13;18.50;92.50
33931;DHT22;20215;53.130;6.408;2022-10-17T15:33:42;18.40;92.30
33931;DHT22;20215;53.130;6.408;2022-10-17T15:36:28;18.40;92.50
33931;DHT22;20215;53.130;6.408;2022-10-17T15:38:56;18.50;92.50
33931;DHT22;20215;53.130;6.408;2022-10-17T15:41:24;18.40;92.30
33931;DHT22;20215;53.130;6.408;2022-10-17T15:43:50;18.40;92.50
33931;DHT22;20215;53.130;6.408;2022-10-17T15:46:18;18.50;93.00
33931;DHT22;20215;53.130;6.408;2022-10-17T15:48:45;18.40;92.40
33931;DHT22;20215;53.130;6.408;2022-10-17T15:51:11;18.50;92.40
33931;DHT22;20215;53.130;6.408;2022-10-17T15:53:37;18.40;92.50
33931;DHT22;20215;53.130;6.408;2022-10-17T15:56:03;18.50;92.60
33931;DHT22;20215;53.130;6.408;2022-10-17T15:58:37;18.40;92.30
33931;DHT22;20215;53.130;6.408;2022-10-17T16:01:05;18.40;92.50
33931;DHT22;20215;53.130;6.408;2022-10-17T16:03:31;18.50;93.10
33931;DHT22;20215;53.130;6.408;2022-10-17T16:05:57;18.40;92.90
33931;DHT22;20215;53.130;6.408;2022-10-17T16:08:23;18.40;92.90
33931;DHT22;20215;53.130;6.408;2022-10-17T16:10:49;18.50;92.50
33931;DHT22;20215;53.130;6.408;2022-10-17T16:13:21;18.40;92.30
33931;DHT22;20215;53.130;6.408;2022-10-17T16:15:47;18.50;92.70
33931;DHT22;20215;53.130;6.408;2022-10-17T16:18:13;18.40;92.40
33931;DHT22;20215;53.130;6.408;2022-10-17T16:20:38;18.40;92.60
33931;DHT22;20215;53.130;6.408;2022-10-17T16:23:04;18.40;92.40
33931;DHT22;20215;53.130;6.408;2022-10-17T16:25:32;18.40;92.40
33931;DHT22;20215;53.130;6.408;2022-10-17T16:27:59;18.50;92.70
33931;DHT22;20215;53.130;6.408;2022-10-17T16:30:29;18.40;92.80
33931;DHT22;20215;53.130;6.408;2022-10-17T16:32:55;18.50;92.80
33931;DHT22;20215;53.130;6.408;2022-10-17T16:35:33;18.40;92.50
33931;DHT22;20215;53.130;6.408;2022-10-17T16:37:59;18.40;92.50
33931;DHT22;20215;53.130;6.408;2022-10-17T16:40:24;18.40;92.40
33931;DHT22;20215;53.130;6.408;2022-10-17T16:42:53;18.40;92.40
33931;DHT22;20215;53.130;6.408;2022-10-17T16:45:21;18.40;92.50
33931;DHT22;20215;53.130;6.408;2022-10-17T16:47:47;18.40;92.50
33931;DHT22;20215;53.130;6.408;2022-10-17T16:50:13;18.40;92.90
33931;DHT22;20215;53.130;6.408;2022-10-17T16:52:39;18.40;92.60
33931;DHT22;20215;53.130;6.408;2022-10-17T16:55:05;18.40;92.60
33931;DHT22;20215;53.130;6.408;2022-10-17T16:57:30;18.40;92.50
33931;DHT22;20215;53.130;6.408;2022-10-17T16:59:56;18.40;92.30
33931;DHT22;20215;53.130;6.408;2022-10-17T17:02:22;18.40;92.20
33931;DHT22;20215;53.130;6.408;2022-10-17T17:04:47;18.40;92.40
33931;DHT22;20215;53.130;6.408;2022-10-17T17:07:13;18.40;92.20
33931;DHT22;20215;53.130;6.408;2022-10-17T17:09:39;18.40;92.20
33931;DHT22;20215;53.130;6.408;2022-10-17T17:12:05;18.40;92.30
33931;DHT22;20215;53.130;6.408;2022-10-17T17:14:30;18.40;92.30
33931;DHT22;20215;53.130;6.408;2022-10-17T17:16:56;18.40;92.30
33931;DHT22;20215;53.130;6.408;2022-10-17T17:19:22;18.40;92.30
33931;DHT22;20215;53.130;6.408;2022-10-17T17:21:48;18.40;92.40
33931;DHT22;20215;53.130;6.408;2022-10-17T17:24:16;18.40;92.30
33931;DHT22;20215;53.130;6.408;2022-10-17T17:26:42;18.30;92.40
33931;DHT22;20215;53.130;6.408;2022-10-17T17:29:08;18.30;92.60
33931;DHT22;20215;53.130;6.408;2022-10-17T17:31:36;18.40;92.40
33931;DHT22;20215;53.130;6.408;2022-10-17T17:34:03;18.30;92.40
33931;DHT22;20215;53.130;6.408;2022-10-17T17:36:31;18.30;92.40
33931;DHT22;20215;53.130;6.408;2022-10-17T17:38:59;18.30;92.40
33931;DHT22;20215;53.130;6.408;2022-10-17T17:41:25;18.30;92.50
33931;DHT22;20215;53.130;6.408;2022-10-17T17:43:51;18.30;92.30
33931;DHT22;20215;53.130;6.408;2022-10-17T17:46:20;18.30;92.30
33931;DHT22;20215;53.130;6.408;2022-10-17T17:48:47;18.30;92.30